Metar z pełnej godziny Komunikat METAR ze strony awiacja.imgw.pl Metar G00 EPSC METAR EPSC 230800Z 27011KT 250V320 9999 FEW018 BKN020 08/02 Q1021 =